الصفحة الرئيسية
METAR-TAF:

METAR-TAF

مطار :

مطار نورمان مانلي الدولي

كينغستون, جامايكا

دائرة عرض: 17-56N, خط طول: 076-47W, ارتفاع: 3 متر

مراقبة الطقس الحالي

تاريخ ووقت الإصدار 21 دقيقة قبل الساعة 19:00UTC
ريح 6 عقدة من الجنوب
درجة الحرارة 32°درجة مئوية
الرطوبة 52%
ضغط 1012 hPa
الرؤية 10 كم أو أكثر
غيوم متفرقة على ارتفاع 2200 قدم

METAR: MKJP 171900Z 17006KT 9999 SCT022 32/21 Q1012

زمن: 14:21 (19:21 UTC)

توقعات

تاريخ ووقت الإصدار 2ساعات و 6 دقيقة قبل الساعة 17:15UTC
التوقعات صالحة من17 الساعة 18 UTC إلى 18 الساعة 18 UTC
ريح 12 عقدة من الجنوب
الرؤية 10 كم أو أكثر
غيوم متفرقة على ارتفاع 2000 قدم
غيوم قليلة على ارتفاع 2200 قدم, مزنة ركامية.
أصبح
من 18 الساعة 01 UTC إلى 18 الساعة 03 UTC
ريح 7 عقدة من الشمال
غيوم قليلة على ارتفاع 2200 قدم
أصبح
من 18 الساعة 14 UTC إلى 18 الساعة 16 UTC
ريح 14 عقدة من الجنوب/الجنوب الشرقي
غيوم متفرقة على ارتفاع 2000 قدم
غيوم قليلة على ارتفاع 2200 قدم, مزنة ركامية.

TAF: MKJP 171715Z 1718/1818 17012KT 9999 SCT020 FEW022CB BECMG 1801/1803 35007KT FEW022 BECMG 1814/1816 16014KT SCT020 FEW022CB

أرصاد الطقس والتوقعات من أكثر من 4000 مطار (تقارير الطقس للمطار METAR والتنبؤ بالطقس بالمطارTAF).

المحطات المتاحة هي النقط الصفراء والحمراء على الخريطة.

حرك المؤشر فوق النقطة لمعرفة اسم المحطة.

ثم انقر لمعرفة أرصاد وتوقعات الطقس.

لتغيير الخارطة: اضغط على الأزرار الخضراء مع رمز الصليب الأسود للتكبير. على الزر الأخضر مع شرطة للتصغير، أو على الأسهم الخضراء للخرائط المجاورة.


METAR-TAF: